SLSB/SRJ METAR and TAF weather

Enter ICAO airport designator
Station Type Date Time Source
SLSB METAR 2020/03/18 15:00 UTC NOAA

SLSB 181500Z 32004KT 9999 BKN017 BKN200 29/25 Q1012


Station Type Date Time Source
SLSB Decoded METAR 2020/03/18 15:00 UTC NOAA

San Borja, Bolivia (SLSB) 14-52S 066-52W
Mar 18, 2020 - 11:00 AM EDT / 2020.03.18 1500 UTC
Wind: from the NW (320 degrees) at 5 MPH (4 KT):0
Visibility: greater than 7 mile(s):0
Sky conditions: mostly cloudy
Temperature: 84 F (29 C)
Dew Point: 77 F (25 C)
Relative Humidity: 79%
Pressure (altimeter): 29.88 in. Hg (1012 hPa)
ob: SLSB 181500Z 32004KT 9999 BKN017 BKN200 29/25 Q1012
cycle: 15

Station Type Date Time Source
SLSB TAF UTC NOAA

Error!

Example: see airport list